createdAt,value
2022-09-28T00:03:55.216Z,12.14
2022-09-28T00:09:02.850Z,11.71
2022-09-28T00:14:07.652Z,11.31
2022-09-28T00:19:14.225Z,11.52
2022-09-28T00:24:24.008Z,11.32
2022-09-28T00:29:32.647Z,10.48
2022-09-28T00:34:40.861Z,11.36
2022-09-28T00:39:53.483Z,11.84
2022-09-28T00:45:01.758Z,11.61
2022-09-28T00:50:18.421Z,10.89
2022-09-28T00:55:34.120Z,10.20
2022-09-28T01:00:40.735Z,10.54
2022-09-28T01:05:49.850Z,10.65
2022-09-28T01:10:56.924Z,10.51
2022-09-28T01:16:13.008Z,10.58
2022-09-28T01:21:20.978Z,10.50
2022-09-28T01:26:48.660Z,10.18
2022-09-28T01:31:57.829Z,10.47
2022-09-28T01:37:08.646Z,9.94
2022-09-28T01:42:22.808Z,9.90
2022-09-28T01:47:28.774Z,9.74
2022-09-28T01:52:41.108Z,9.57
2022-09-28T01:57:51.751Z,10.29
2022-09-28T02:03:01.863Z,10.27
2022-09-28T02:08:21.071Z,11.28
2022-09-28T02:13:34.088Z,11.94
2022-09-28T02:18:38.258Z,10.38
2022-09-28T02:23:52.369Z,10.84
2022-09-28T02:28:58.377Z,11.48
2022-09-28T02:34:02.671Z,11.31
2022-09-28T02:39:15.254Z,11.37
2022-09-28T02:44:40.060Z,11.92
2022-09-28T02:49:50.935Z,11.29
2022-09-28T02:55:09.411Z,11.24
2022-09-28T03:00:19.018Z,12.47
2022-09-28T03:05:36.426Z,12.62
2022-09-28T03:10:48.478Z,12.87
2022-09-28T03:15:54.138Z,12.66
2022-09-28T03:20:58.155Z,12.66
2022-09-28T03:26:02.174Z,12.40
2022-09-28T03:31:07.797Z,12.07
2022-09-28T03:36:11.691Z,11.76
2022-09-28T03:41:15.998Z,11.94
2022-09-28T03:46:22.093Z,12.03
2022-09-28T03:51:29.628Z,12.02
2022-09-28T03:56:33.395Z,11.57
2022-09-28T04:01:39.139Z,11.62
2022-09-28T04:06:44.520Z,12.19
2022-09-28T04:12:03.291Z,12.23
2022-09-28T04:17:09.543Z,11.20
2022-09-28T04:22:14.370Z,11.10
2022-09-28T04:27:35.977Z,10.80
2022-09-28T04:32:41.984Z,11.01
2022-09-28T04:37:45.957Z,11.02
2022-09-28T04:42:55.019Z,11.34
2022-09-28T04:48:00.488Z,11.16
2022-09-28T04:53:22.019Z,11.28
2022-09-28T04:58:26.205Z,12.39
2022-09-28T05:03:32.206Z,13.46
2022-09-28T05:09:05.348Z,13.19
2022-09-28T05:14:11.927Z,13.02
2022-09-28T05:19:18.391Z,12.60
2022-09-28T05:24:22.533Z,13.29
2022-09-28T05:29:32.019Z,12.93
2022-09-28T05:34:56.812Z,12.93
2022-09-28T05:40:04.714Z,12.45
2022-09-28T05:45:10.401Z,13.98
2022-09-28T05:50:18.389Z,14.23
2022-09-28T05:55:24.675Z,13.38
2022-09-28T06:00:29.578Z,12.18
2022-09-28T06:05:36.279Z,11.51
2022-09-28T06:10:40.999Z,11.55
2022-09-28T06:15:46.465Z,11.30
2022-09-28T06:20:52.735Z,12.25
2022-09-28T06:26:07.536Z,12.42
2022-09-28T06:31:11.806Z,12.02
2022-09-28T06:36:25.816Z,11.94
2022-09-28T06:41:29.911Z,11.34
2022-09-28T06:46:38.295Z,11.66
2022-09-28T06:52:13.048Z,11.74
2022-09-28T06:57:35.630Z,11.54
2022-09-28T07:02:39.682Z,12.61
2022-09-28T07:07:44.957Z,13.27
2022-09-28T07:13:03.611Z,13.03
2022-09-28T07:18:18.783Z,12.70
2022-09-28T07:23:24.619Z,12.26
2022-09-28T07:28:46.827Z,13.17
2022-09-28T07:34:23.624Z,13.03
2022-09-28T07:40:00.484Z,12.26
2022-09-28T07:45:08.695Z,12.61
2022-09-28T07:50:12.827Z,12.96
2022-09-28T07:55:35.504Z,12.76
2022-09-28T08:01:04.258Z,12.74
2022-09-28T08:06:12.714Z,12.54
2022-09-28T08:11:19.452Z,13.00
2022-09-28T08:16:47.555Z,12.80
2022-09-28T08:22:09.898Z,12.68
2022-09-28T08:27:16.831Z,12.53
2022-09-28T08:32:21.860Z,12.25
2022-09-28T08:37:58.185Z,12.69
2022-09-28T08:43:54.342Z,13.15
2022-09-28T08:49:36.468Z,14.42
2022-09-28T08:55:12.600Z,14.61
2022-09-28T09:00:22.335Z,15.32
2022-09-28T09:05:45.017Z,16.21
2022-09-28T09:10:54.788Z,16.16
2022-09-28T09:16:19.932Z,15.41
2022-09-28T09:21:46.852Z,15.69
2022-09-28T09:27:01.721Z,14.85
2022-09-28T09:32:19.584Z,15.20
2022-09-28T09:37:48.537Z,14.69
2022-09-28T09:43:38.467Z,14.19
2022-09-28T09:49:02.900Z,14.13
2022-09-28T09:54:16.727Z,14.83
2022-09-28T09:59:25.679Z,15.98
2022-09-28T10:04:44.655Z,16.31
2022-09-28T10:10:01.570Z,16.90
2022-09-28T10:15:25.740Z,15.78
2022-09-28T10:20:46.110Z,15.56
2022-09-28T10:26:03.370Z,15.23
2022-09-28T10:31:35.414Z,15.21
2022-09-28T10:36:58.602Z,15.55
2022-09-28T10:42:08.301Z,16.36
2022-09-28T10:47:19.923Z,16.40
2022-09-28T10:52:41.793Z,16.58
2022-09-28T10:57:53.477Z,16.94
2022-09-28T11:02:59.360Z,17.69
2022-09-28T11:08:08.449Z,17.20
2022-09-28T11:13:21.654Z,18.03
2022-09-28T11:18:36.743Z,16.42
2022-09-28T11:23:58.029Z,15.69
2022-09-28T11:29:04.149Z,16.33
2022-09-28T11:34:36.207Z,16.29
2022-09-28T11:40:03.398Z,16.79
2022-09-28T11:45:24.626Z,16.44
2022-09-28T11:50:46.182Z,16.78
2022-09-28T11:55:59.315Z,18.25
2022-09-28T12:01:24.027Z,19.89
2022-09-28T12:06:51.929Z,20.47
2022-09-28T12:12:03.832Z,21.84
2022-09-28T12:17:24.891Z,21.61
2022-09-28T12:22:34.316Z,20.37
2022-09-28T12:27:45.071Z,20.16
2022-09-28T12:32:53.486Z,21.22
2022-09-28T12:38:11.753Z,21.38
2022-09-28T12:43:42.343Z,22.59
2022-09-28T12:55:03.699Z,22.29
2022-09-28T13:00:13.047Z,22.74
2022-09-28T13:05:34.547Z,23.15
2022-09-28T13:10:43.095Z,23.68
2022-09-28T13:15:55.923Z,24.14
2022-09-28T13:21:07.975Z,24.38
2022-09-28T13:26:23.702Z,24.54
2022-09-28T13:31:33.958Z,22.94
2022-09-28T13:36:47.857Z,23.46
2022-09-28T13:41:54.682Z,23.43
2022-09-28T13:47:23.363Z,24.89
2022-09-28T13:52:41.567Z,22.99
2022-09-28T13:57:52.022Z,23.67
2022-09-28T14:03:04.733Z,24.21
2022-09-28T14:08:28.067Z,24.57
2022-09-28T14:14:07.313Z,24.18
2022-09-28T14:19:19.910Z,22.39
2022-09-28T14:24:46.121Z,21.80
2022-09-28T14:29:55.587Z,21.79
2022-09-28T14:35:04.640Z,22.95
2022-09-28T14:40:37.204Z,23.62
2022-09-28T14:45:43.115Z,24.24
2022-09-28T14:50:50.011Z,24.00
2022-09-28T14:55:58.893Z,24.17
2022-09-28T15:01:06.530Z,24.78
2022-09-28T15:06:16.258Z,24.31
2022-09-28T15:11:23.951Z,24.01
2022-09-28T15:16:32.244Z,23.20
2022-09-28T15:21:39.955Z,22.99
2022-09-28T15:26:49.405Z,23.31
2022-09-28T15:31:54.647Z,22.41
2022-09-28T15:37:00.362Z,21.54
2022-09-28T15:42:05.064Z,21.31
2022-09-28T15:47:13.991Z,21.15
2022-09-28T15:52:29.807Z,20.57
2022-09-28T15:57:38.072Z,19.84
2022-09-28T16:03:00.518Z,19.47
2022-09-28T16:08:07.059Z,18.72
2022-09-28T16:13:17.952Z,17.72
2022-09-28T16:18:23.714Z,16.90
2022-09-28T16:23:33.267Z,17.26
2022-09-28T16:28:51.960Z,16.83
2022-09-28T16:33:58.966Z,16.86
2022-09-28T16:39:04.247Z,16.66
2022-09-28T16:44:16.775Z,17.01
2022-09-28T16:49:20.888Z,16.73
2022-09-28T16:54:44.334Z,16.91
2022-09-28T16:59:48.479Z,16.91
2022-09-28T17:04:52.825Z,16.44
2022-09-28T17:09:57.959Z,16.22
2022-09-28T17:15:01.641Z,16.70
2022-09-28T17:20:21.507Z,16.10
2022-09-28T17:25:30.889Z,15.94
2022-09-28T17:30:34.858Z,15.39
2022-09-28T17:35:40.550Z,15.37
2022-09-28T17:40:48.160Z,15.24
2022-09-28T17:45:53.210Z,15.08
2022-09-28T17:50:57.282Z,15.12
2022-09-28T17:56:02.887Z,15.46
2022-09-28T18:01:07.069Z,15.14
2022-09-28T18:06:14.662Z,15.41
2022-09-28T18:11:20.175Z,15.45
2022-09-28T18:16:25.057Z,15.80
2022-09-28T18:21:32.388Z,15.07
2022-09-28T18:26:38.623Z,15.02
2022-09-28T18:31:44.829Z,15.58
2022-09-28T18:36:49.301Z,15.57
2022-09-28T18:41:56.505Z,15.19
2022-09-28T18:47:02.438Z,15.31
2022-09-28T18:52:06.788Z,15.24
2022-09-28T18:57:15.341Z,15.36
2022-09-28T19:02:19.469Z,14.96
2022-09-28T19:07:23.595Z,15.08
2022-09-28T19:12:29.046Z,15.27
2022-09-28T19:17:36.486Z,15.64
2022-09-28T19:22:40.814Z,15.40
2022-09-28T19:27:47.955Z,15.32
2022-09-28T19:32:52.033Z,15.48
2022-09-28T19:37:56.258Z,15.19
2022-09-28T19:43:02.086Z,14.79
2022-09-28T19:48:06.193Z,14.69
2022-09-28T19:53:10.891Z,14.64
2022-09-28T19:58:17.232Z,14.20
2022-09-28T20:03:21.453Z,14.66
2022-09-28T20:08:26.343Z,14.43
2022-09-28T20:13:35.839Z,14.56
2022-09-28T20:18:44.306Z,14.48
2022-09-28T20:23:49.724Z,14.20
2022-09-28T20:28:55.878Z,14.53
2022-09-28T20:34:00.249Z,14.80
2022-09-28T20:39:05.219Z,14.88
2022-09-28T20:44:10.925Z,14.95
2022-09-28T20:49:15.034Z,14.73
2022-09-28T20:54:19.727Z,14.28
2022-09-28T20:59:27.869Z,14.86
2022-09-28T21:04:34.597Z,14.86
2022-09-28T21:09:38.803Z,14.95
2022-09-28T21:14:45.817Z,15.12
2022-09-28T21:19:49.874Z,14.86
2022-09-28T21:24:54.060Z,14.54
2022-09-28T21:29:59.579Z,14.52
2022-09-28T21:35:04.537Z,14.61
2022-09-28T21:40:11.006Z,14.71
2022-09-28T21:45:17.585Z,15.32
2022-09-28T21:50:23.614Z,15.21
2022-09-28T21:55:27.560Z,15.18
2022-09-28T22:00:32.946Z,14.93
2022-09-28T22:05:37.092Z,15.12
2022-09-28T22:10:41.046Z,14.74
2022-09-28T22:15:46.397Z,14.90
2022-09-28T22:20:50.366Z,15.37
2022-09-28T22:25:59.619Z,15.14
2022-09-28T22:31:05.679Z,14.85
2022-09-28T22:36:11.507Z,15.04
2022-09-28T22:41:17.029Z,15.22
2022-09-28T22:46:24.369Z,15.64
2022-09-28T22:51:30.514Z,15.82
2022-09-28T22:56:34.824Z,15.23
2022-09-28T23:01:40.585Z,14.96
2022-09-28T23:06:44.991Z,14.86
2022-09-28T23:11:48.942Z,15.33
2022-09-28T23:16:54.372Z,15.44
2022-09-28T23:21:59.379Z,15.09
2022-09-28T23:27:03.379Z,14.95
2022-09-28T23:32:08.888Z,15.32
2022-09-28T23:37:12.862Z,15.47
2022-09-28T23:42:17.207Z,15.42
2022-09-28T23:47:22.554Z,15.30
2022-09-28T23:52:26.524Z,15.44
2022-09-28T23:57:30.479Z,15.54
